Terminal Aerodrome Forecast
Issued by NWS Quad Cities IA IL

Home | Current Version | Previous Version | Text Only | Print | Product List | Glossary On
Versions: 1 2 3 4 5 6 7 8 9 10 11 12 13 14 15 16 17 18 19 20 21 22
447
FTUS43 KDVN 040536
TAFMLI
TAF
KMLI 040536Z 0406/0506 14008KT P6SM SCT030 OVC100
      TEMPO 0407/0410 -SN BKN028
     FM041000 13007KT 3SM -SN BR OVC025
     FM041200 14008KT 1SM -SN BR OVC004
     FM042000 16006KT 4SM -SN BR OVC007
     FM050000 23007KT 5SM BR OVC015=

USA.gov is the U.S. government's official web portal to all federal, state and local government web resources and services.